createdAt,value
2022-09-23T00:01:20.840Z,28.00
2022-09-23T00:03:49.356Z,28.33
2022-09-23T00:06:24.237Z,25.58
2022-09-23T00:08:52.533Z,25.33
2022-09-23T00:11:25.342Z,28.65
2022-09-23T00:13:58.864Z,28.17
2022-09-23T00:16:32.683Z,23.92
2022-09-23T00:19:02.544Z,27.35
2022-09-23T00:21:30.074Z,24.85
2022-09-23T00:23:57.558Z,21.08
2022-09-23T00:26:25.038Z,23.27
2022-09-23T00:28:52.661Z,24.60
2022-09-23T00:31:27.396Z,21.85
2022-09-23T00:34:00.450Z,23.95
2022-09-23T00:36:29.669Z,22.00
2022-09-23T00:38:57.369Z,22.63
2022-09-23T00:41:26.077Z,23.13
2022-09-23T00:44:00.537Z,21.30
2022-09-23T00:46:43.617Z,20.65
2022-09-23T00:49:20.950Z,24.50
2022-09-23T00:51:59.104Z,20.15
2022-09-23T00:54:27.854Z,19.85
2022-09-23T00:56:57.699Z,18.48
2022-09-23T00:59:26.326Z,19.70
2022-09-23T01:01:57.979Z,20.17
2022-09-23T01:04:28.865Z,21.40
2022-09-23T01:06:56.158Z,20.45
2022-09-23T01:09:25.309Z,21.45
2022-09-23T01:12:24.417Z,24.85
2022-09-23T01:15:12.695Z,22.25
2022-09-23T01:18:23.165Z,19.63
2022-09-23T01:20:59.453Z,21.70
2022-09-23T01:24:07.962Z,24.45
2022-09-23T01:27:19.491Z,20.83
2022-09-23T01:30:08.381Z,23.73
2022-09-23T01:32:53.370Z,22.17
2022-09-23T01:35:44.458Z,18.70
2022-09-23T01:38:51.415Z,19.13
2022-09-23T01:42:07.273Z,18.42
2022-09-23T01:45:05.467Z,23.10
2022-09-23T01:47:39.966Z,24.15
2022-09-23T01:50:35.495Z,19.88
2022-09-23T01:53:12.093Z,25.05
2022-09-23T01:55:48.723Z,28.50
2022-09-23T01:58:38.146Z,26.95
2022-09-23T02:01:08.700Z,28.73
2022-09-23T02:04:04.253Z,26.52
2022-09-23T02:06:50.826Z,32.58
2022-09-23T02:09:28.626Z,29.00
2022-09-23T02:12:06.157Z,25.27
2022-09-23T02:14:52.122Z,23.30
2022-09-23T02:17:39.725Z,30.85
2022-09-23T02:20:08.171Z,26.80
2022-09-23T02:23:08.757Z,31.20
2022-09-23T02:26:00.644Z,25.08
2022-09-23T02:29:13.373Z,21.23
2022-09-23T02:31:50.210Z,28.30
2022-09-23T02:34:50.313Z,24.92
2022-09-23T02:37:54.011Z,23.70
2022-09-23T02:40:53.755Z,26.33
2022-09-23T02:43:52.097Z,23.25
2022-09-23T02:46:20.569Z,27.33
2022-09-23T02:49:11.215Z,28.02
2022-09-23T02:51:40.951Z,29.73
2022-09-23T02:54:14.997Z,42.08
2022-09-23T02:56:42.676Z,38.22
2022-09-23T02:59:12.382Z,44.15
2022-09-23T03:02:20.737Z,34.03
2022-09-23T03:05:34.888Z,29.77
2022-09-23T03:08:22.581Z,26.48
2022-09-23T03:11:07.014Z,25.52
2022-09-23T03:14:07.606Z,27.15
2022-09-23T03:16:58.364Z,25.92
2022-09-23T03:19:45.714Z,22.88
2022-09-23T03:22:21.388Z,25.30
2022-09-23T03:24:54.048Z,23.23
2022-09-23T03:27:28.602Z,25.60
2022-09-23T03:29:57.454Z,25.63
2022-09-23T03:32:29.122Z,22.70
2022-09-23T03:35:01.142Z,23.65
2022-09-23T03:37:37.717Z,23.08
2022-09-23T03:40:30.884Z,18.65
2022-09-23T03:43:01.480Z,20.88
2022-09-23T03:45:34.189Z,26.85
2022-09-23T03:48:03.258Z,21.90
2022-09-23T03:50:30.715Z,26.50
2022-09-23T03:52:58.442Z,34.05
2022-09-23T03:55:25.963Z,28.00
2022-09-23T03:57:53.542Z,30.63
2022-09-23T04:00:20.818Z,26.65
2022-09-23T04:02:49.907Z,24.92
2022-09-23T04:05:18.103Z,24.80
2022-09-23T04:07:45.809Z,23.58
2022-09-23T04:10:13.190Z,22.48
2022-09-23T04:12:40.438Z,22.10
2022-09-23T04:15:08.075Z,22.67
2022-09-23T04:17:35.645Z,21.90
2022-09-23T04:20:04.114Z,21.02
2022-09-23T04:22:33.270Z,19.70
2022-09-23T04:25:00.751Z,15.95
2022-09-23T04:27:27.964Z,19.98
2022-09-23T04:29:55.162Z,20.15
2022-09-23T04:32:22.779Z,14.38
2022-09-23T04:34:49.928Z,15.43
2022-09-23T04:37:17.138Z,14.00
2022-09-23T04:39:44.554Z,15.82
2022-09-23T04:42:11.699Z,14.85
2022-09-23T04:44:39.811Z,12.35
2022-09-23T04:47:07.513Z,16.95
2022-09-23T04:49:34.878Z,22.60
2022-09-23T04:52:02.912Z,24.40
2022-09-23T04:54:30.286Z,22.05
2022-09-23T04:56:57.626Z,23.10
2022-09-23T04:59:25.124Z,18.80
2022-09-23T05:01:54.634Z,20.95
2022-09-23T05:04:21.915Z,16.85
2022-09-23T05:06:49.350Z,16.58
2022-09-23T05:09:17.970Z,17.90
2022-09-23T05:11:45.758Z,25.85
2022-09-23T05:14:13.355Z,25.00
2022-09-23T05:16:41.064Z,29.08
2022-09-23T05:19:08.378Z,29.85
2022-09-23T05:21:36.635Z,30.08
2022-09-23T05:24:04.248Z,31.50
2022-09-23T05:26:32.945Z,28.17
2022-09-23T05:29:00.933Z,35.38
2022-09-23T05:31:30.547Z,35.75
2022-09-23T05:34:04.805Z,36.33
2022-09-23T05:36:38.732Z,29.25
2022-09-23T05:39:08.238Z,31.40
2022-09-23T05:41:37.191Z,27.55
2022-09-23T05:44:04.889Z,27.92
2022-09-23T05:46:33.216Z,34.67
2022-09-23T05:49:03.353Z,32.58
2022-09-23T05:51:32.899Z,28.98
2022-09-23T05:54:04.400Z,32.50
2022-09-23T05:56:34.518Z,34.10
2022-09-23T05:59:03.728Z,29.05
2022-09-23T06:01:35.408Z,27.33
2022-09-23T06:04:06.194Z,28.88
2022-09-23T06:06:37.222Z,29.52
2022-09-23T06:09:06.917Z,26.35
2022-09-23T06:11:36.080Z,25.83
2022-09-23T06:14:04.339Z,27.92
2022-09-23T06:16:35.360Z,76.85
2022-09-23T06:19:06.476Z,38.80
2022-09-23T06:21:40.606Z,28.92
2022-09-23T06:24:09.830Z,25.52
2022-09-23T06:26:38.426Z,27.90
2022-09-23T06:29:12.175Z,26.88
2022-09-23T06:31:42.168Z,30.52
2022-09-23T06:34:14.599Z,27.77
2022-09-23T06:36:45.434Z,25.52
2022-09-23T06:39:15.384Z,23.90
2022-09-23T06:41:44.393Z,28.27
2022-09-23T06:44:13.271Z,30.75
2022-09-23T06:46:40.662Z,36.85
2022-09-23T06:49:08.233Z,33.38
2022-09-23T06:51:36.809Z,34.75
2022-09-23T06:54:04.533Z,37.72
2022-09-23T06:56:37.824Z,48.28
2022-09-23T06:59:09.520Z,62.25
2022-09-23T07:01:37.157Z,65.28
2022-09-23T07:04:04.739Z,74.38
2022-09-23T07:06:32.173Z,76.65
2022-09-23T07:09:01.070Z,90.45
2022-09-23T07:11:28.532Z,40.05
2022-09-23T07:13:55.804Z,29.10
2022-09-23T07:16:23.616Z,25.90
2022-09-23T07:18:52.472Z,27.90
2022-09-23T07:21:19.976Z,29.98
2022-09-23T07:23:51.434Z,29.48
2022-09-23T07:26:20.367Z,22.77
2022-09-23T07:28:47.805Z,22.17
2022-09-23T07:31:30.670Z,17.35
2022-09-23T07:34:01.471Z,20.45
2022-09-23T07:36:32.864Z,17.15
2022-09-23T07:39:04.524Z,20.02
2022-09-23T07:41:33.889Z,17.13
2022-09-23T07:44:01.694Z,17.50
2022-09-23T07:46:33.250Z,46.58
2022-09-23T07:49:02.435Z,38.47
2022-09-23T07:51:36.916Z,55.60
2022-09-23T07:54:13.637Z,39.15
2022-09-23T07:56:42.936Z,25.13
2022-09-23T07:59:20.349Z,18.83
2022-09-23T08:01:52.746Z,13.20
2022-09-23T08:04:31.235Z,16.90
2022-09-23T08:07:04.791Z,17.63
2022-09-23T08:09:41.750Z,15.68
2022-09-23T08:12:15.889Z,14.02
2022-09-23T08:14:45.384Z,14.90
2022-09-23T08:17:14.162Z,14.00
2022-09-23T08:19:41.309Z,16.92
2022-09-23T08:22:08.794Z,21.02
2022-09-23T08:24:36.077Z,21.58
2022-09-23T08:27:03.535Z,14.73
2022-09-23T08:29:30.898Z,13.75
2022-09-23T08:31:58.265Z,11.18
2022-09-23T08:34:27.986Z,11.65
2022-09-23T08:36:55.537Z,10.00
2022-09-23T08:39:23.243Z,8.80
2022-09-23T08:42:21.728Z,12.45
2022-09-23T08:44:56.394Z,10.80
2022-09-23T08:47:32.371Z,15.27
2022-09-23T08:50:18.224Z,11.88
2022-09-23T08:52:59.415Z,9.90
2022-09-23T08:55:46.124Z,10.02
2022-09-23T08:58:44.071Z,14.27
2022-09-23T09:01:31.620Z,13.40
2022-09-23T09:04:02.889Z,10.05
2022-09-23T09:06:52.218Z,21.92
2022-09-23T09:09:36.350Z,18.35
2022-09-23T09:12:34.191Z,19.80
2022-09-23T09:15:13.166Z,17.38
2022-09-23T09:17:51.909Z,19.38
2022-09-23T09:20:39.990Z,16.25
2022-09-23T09:23:37.686Z,16.25
2022-09-23T09:26:11.255Z,14.45
2022-09-23T09:28:59.112Z,13.85
2022-09-23T09:31:37.016Z,15.77
2022-09-23T09:34:38.268Z,14.23
2022-09-23T09:37:35.919Z,18.77
2022-09-23T09:40:04.273Z,20.50
2022-09-23T09:42:40.519Z,14.25
2022-09-23T09:45:45.350Z,12.82
2022-09-23T09:48:50.873Z,18.52
2022-09-23T09:51:25.372Z,15.02
2022-09-23T09:53:52.735Z,12.85
2022-09-23T09:56:31.147Z,11.52
2022-09-23T09:59:25.717Z,15.60
2022-09-23T10:02:25.942Z,11.30
2022-09-23T10:05:46.807Z,10.63
2022-09-23T10:08:32.456Z,10.32
2022-09-23T10:11:04.459Z,14.00
2022-09-23T10:13:32.569Z,21.00
2022-09-23T10:16:04.047Z,25.27
2022-09-23T10:18:48.227Z,10.38
2022-09-23T10:21:26.939Z,10.02
2022-09-23T10:23:58.678Z,10.63
2022-09-23T10:26:34.072Z,9.52
2022-09-23T10:29:48.739Z,10.25
2022-09-23T10:32:33.356Z,11.18
2022-09-23T10:35:09.458Z,10.63
2022-09-23T10:37:59.632Z,9.45
2022-09-23T10:40:50.234Z,11.18
2022-09-23T10:44:32.934Z,9.82
2022-09-23T10:47:37.021Z,8.25
2022-09-23T10:50:24.017Z,7.20
2022-09-23T10:53:15.292Z,11.38
2022-09-23T10:56:10.880Z,6.05
2022-09-23T10:59:02.340Z,6.20
2022-09-23T11:02:08.669Z,5.43
2022-09-23T11:04:47.278Z,6.15
2022-09-23T11:08:04.638Z,5.00
2022-09-23T11:11:13.014Z,13.40
2022-09-23T11:14:06.695Z,6.60
2022-09-23T11:17:14.891Z,4.45
2022-09-23T11:19:58.366Z,4.00
2022-09-23T11:23:03.270Z,3.45
2022-09-23T11:26:34.102Z,3.17
2022-09-23T11:29:35.537Z,2.60
2022-09-23T11:32:17.719Z,2.67
2022-09-23T11:35:12.998Z,2.17
2022-09-23T11:38:01.700Z,2.28
2022-09-23T11:40:36.505Z,2.55
2022-09-23T11:43:39.415Z,2.90
2022-09-23T11:47:07.739Z,2.47
2022-09-23T11:50:02.348Z,3.67
2022-09-23T11:52:41.592Z,2.65
2022-09-23T11:55:31.582Z,2.55
2022-09-23T11:58:22.587Z,2.55
2022-09-23T12:01:07.211Z,1.73
2022-09-23T12:03:53.678Z,2.35
2022-09-23T12:07:03.541Z,2.00
2022-09-23T12:09:58.070Z,2.50
2022-09-23T12:13:10.893Z,3.55
2022-09-23T12:16:07.071Z,3.75
2022-09-23T12:19:01.077Z,3.78
2022-09-23T12:22:03.367Z,3.30
2022-09-23T12:25:28.886Z,2.83
2022-09-23T12:28:05.585Z,2.50
2022-09-23T12:30:37.034Z,2.53
2022-09-23T12:33:10.284Z,2.90
2022-09-23T12:35:44.854Z,2.60
2022-09-23T12:38:38.361Z,2.30
2022-09-23T12:41:27.146Z,22.20
2022-09-23T12:44:15.468Z,16.77
2022-09-23T12:46:47.394Z,2.55
2022-09-23T12:49:29.900Z,2.00
2022-09-23T12:52:18.638Z,2.15
2022-09-23T12:54:49.908Z,1.30
2022-09-23T12:57:35.695Z,1.65
2022-09-23T13:00:12.920Z,1.92
2022-09-23T13:02:47.987Z,1.05
2022-09-23T13:05:37.931Z,2.17
2022-09-23T13:08:24.439Z,1.58
2022-09-23T13:11:05.147Z,1.13
2022-09-23T13:13:44.425Z,1.17
2022-09-23T13:16:13.031Z,1.40
2022-09-23T13:19:04.829Z,1.27
2022-09-23T13:21:47.193Z,1.70
2022-09-23T13:24:41.276Z,1.55
2022-09-23T13:27:36.007Z,1.80
2022-09-23T13:30:25.111Z,3.33
2022-09-23T13:33:11.191Z,2.20
2022-09-23T13:35:46.511Z,2.78
2022-09-23T13:38:26.466Z,1.63
2022-09-23T13:41:10.621Z,1.83
2022-09-23T13:43:44.575Z,1.52
2022-09-23T13:46:27.164Z,1.40
2022-09-23T13:48:56.438Z,18.05
2022-09-23T13:51:33.050Z,2.45
2022-09-23T13:54:03.599Z,3.05
2022-09-23T13:56:33.865Z,2.30
2022-09-23T13:59:37.439Z,1.95
2022-09-23T14:02:12.578Z,3.53
2022-09-23T14:04:40.498Z,1.70
2022-09-23T14:07:12.549Z,2.00
2022-09-23T14:09:50.051Z,2.08
2022-09-23T14:12:22.470Z,2.30
2022-09-23T14:14:54.376Z,3.47
2022-09-23T14:17:23.090Z,2.70
2022-09-23T14:19:51.537Z,3.35
2022-09-23T14:22:28.665Z,3.70
2022-09-23T14:24:57.714Z,3.00
2022-09-23T14:27:36.236Z,3.42
2022-09-23T14:30:05.098Z,3.03
2022-09-23T14:32:33.391Z,3.35
2022-09-23T14:35:04.062Z,7.65
2022-09-23T14:37:57.540Z,3.95
2022-09-23T14:40:32.394Z,2.53
2022-09-23T14:43:24.280Z,4.97
2022-09-23T14:45:56.184Z,4.45
2022-09-23T14:48:34.762Z,4.22
2022-09-23T14:51:07.464Z,2.70
2022-09-23T14:53:45.803Z,3.63
2022-09-23T14:56:17.826Z,2.83
2022-09-23T14:58:58.119Z,2.50
2022-09-23T15:01:31.473Z,2.78
2022-09-23T15:04:16.132Z,3.70
2022-09-23T15:06:53.608Z,5.72
2022-09-23T15:09:27.121Z,5.13
2022-09-23T15:12:01.411Z,16.67
2022-09-23T15:14:38.814Z,5.03
2022-09-23T15:17:25.780Z,3.10
2022-09-23T15:20:18.525Z,2.88
2022-09-23T15:22:50.699Z,3.50
2022-09-23T15:25:22.747Z,4.22
2022-09-23T15:28:15.963Z,4.57
2022-09-23T15:30:43.416Z,4.00
2022-09-23T15:33:17.653Z,3.13
2022-09-23T15:35:49.493Z,3.20
2022-09-23T15:38:17.872Z,4.88
2022-09-23T15:40:46.062Z,3.20
2022-09-23T15:43:23.433Z,6.70
2022-09-23T15:46:05.117Z,4.28
2022-09-23T15:48:52.356Z,4.43
2022-09-23T15:51:23.329Z,4.78
2022-09-23T15:53:55.227Z,4.15
2022-09-23T15:56:24.651Z,4.82
2022-09-23T15:58:51.881Z,6.72
2022-09-23T16:01:30.346Z,4.80
2022-09-23T16:04:00.268Z,5.18
2022-09-23T16:06:28.155Z,4.05
2022-09-23T16:08:55.992Z,4.03
2022-09-23T16:11:31.826Z,4.40
2022-09-23T16:14:00.840Z,6.13
2022-09-23T16:16:28.977Z,5.25
2022-09-23T16:18:56.240Z,7.25
2022-09-23T16:21:28.691Z,6.50
2022-09-23T16:23:57.386Z,5.63
2022-09-23T16:26:34.750Z,7.95
2022-09-23T16:29:02.630Z,6.30
2022-09-23T16:31:31.352Z,7.15
2022-09-23T16:34:02.198Z,6.25
2022-09-23T16:36:41.138Z,6.72
2022-09-23T16:39:12.448Z,5.75
2022-09-23T16:41:42.908Z,6.15
2022-09-23T16:44:12.581Z,5.63
2022-09-23T16:46:42.939Z,6.82
2022-09-23T16:49:12.226Z,6.43
2022-09-23T16:51:40.335Z,5.55
2022-09-23T16:54:11.925Z,5.97
2022-09-23T16:56:46.472Z,5.95
2022-09-23T16:59:15.672Z,5.85
2022-09-23T17:02:02.602Z,5.72
2022-09-23T17:04:29.963Z,5.53
2022-09-23T17:06:57.897Z,5.07
2022-09-23T17:09:30.259Z,8.57
2022-09-23T17:12:18.454Z,6.60
2022-09-23T17:14:45.954Z,9.82
2022-09-23T17:17:13.214Z,9.15
2022-09-23T17:19:41.562Z,6.65
2022-09-23T17:22:10.024Z,7.88
2022-09-23T17:24:37.201Z,8.32
2022-09-23T17:27:04.443Z,6.20
2022-09-23T17:29:32.088Z,7.25
2022-09-23T17:31:59.420Z,5.63
2022-09-23T17:34:28.886Z,6.50
2022-09-23T17:36:56.462Z,8.20
2022-09-23T17:39:23.698Z,8.30
2022-09-23T17:41:51.360Z,7.63
2022-09-23T17:44:18.994Z,5.65
2022-09-23T17:46:47.259Z,7.57
2022-09-23T17:49:15.128Z,8.30
2022-09-23T17:51:42.934Z,12.60
2022-09-23T17:54:11.115Z,14.00
2022-09-23T17:56:38.356Z,14.07
2022-09-23T17:59:05.889Z,13.00
2022-09-23T18:01:35.230Z,15.25
2022-09-23T18:04:05.806Z,12.40
2022-09-23T18:06:37.310Z,12.50
2022-09-23T18:09:07.800Z,10.98
2022-09-23T18:11:38.774Z,11.65
2022-09-23T18:14:13.139Z,12.48
2022-09-23T18:16:43.224Z,12.82
2022-09-23T18:19:14.400Z,12.10
2022-09-23T18:21:47.069Z,10.93
2022-09-23T18:24:31.827Z,11.15
2022-09-23T18:27:01.367Z,11.98
2022-09-23T18:29:28.807Z,9.73
2022-09-23T18:31:56.482Z,8.95
2022-09-23T18:34:24.543Z,6.93
2022-09-23T18:36:51.988Z,6.00
2022-09-23T18:39:19.533Z,5.60
2022-09-23T18:41:49.619Z,5.95
2022-09-23T18:44:17.324Z,7.90
2022-09-23T18:46:44.898Z,8.13
2022-09-23T18:49:50.805Z,6.95
2022-09-23T18:52:18.276Z,7.15
2022-09-23T18:54:46.970Z,6.95
2022-09-23T18:57:14.748Z,6.75
2022-09-23T18:59:42.228Z,5.88
2022-09-23T19:02:10.044Z,5.72
2022-09-23T19:04:38.315Z,4.90
2022-09-23T19:07:07.114Z,4.63
2022-09-23T19:09:34.654Z,6.40
2022-09-23T19:12:03.471Z,5.10
2022-09-23T19:14:30.692Z,6.10
2022-09-23T19:16:59.054Z,7.25
2022-09-23T19:19:26.324Z,10.32
2022-09-23T19:21:54.903Z,14.95
2022-09-23T19:24:22.780Z,11.98
2022-09-23T19:26:50.477Z,19.50
2022-09-23T19:29:22.154Z,15.40
2022-09-23T19:31:51.068Z,10.30
2022-09-23T19:34:26.105Z,7.55
2022-09-23T19:36:59.995Z,6.70
2022-09-23T19:39:31.807Z,9.00
2022-09-23T19:41:59.494Z,14.43
2022-09-23T19:44:28.694Z,16.85
2022-09-23T19:46:57.544Z,16.23
2022-09-23T19:49:26.294Z,12.82
2022-09-23T19:51:56.056Z,10.38
2022-09-23T19:54:26.694Z,9.60
2022-09-23T19:56:54.433Z,11.32
2022-09-23T19:59:21.728Z,12.25
2022-09-23T20:01:49.402Z,9.45
2022-09-23T20:04:17.310Z,7.65
2022-09-23T20:06:46.158Z,8.52
2022-09-23T20:09:13.775Z,7.35
2022-09-23T20:11:43.190Z,13.00
2022-09-23T20:14:11.142Z,23.27
2022-09-23T20:16:39.518Z,23.98
2022-09-23T20:19:07.214Z,17.75
2022-09-23T20:21:35.491Z,13.98
2022-09-23T20:24:07.627Z,12.15
2022-09-23T20:26:54.247Z,10.13
2022-09-23T20:29:22.073Z,12.07
2022-09-23T20:31:49.771Z,17.02
2022-09-23T20:34:17.071Z,20.70
2022-09-23T20:36:44.340Z,18.13
2022-09-23T20:39:11.792Z,22.90
2022-09-23T20:41:39.887Z,22.35
2022-09-23T20:44:14.011Z,15.75
2022-09-23T20:46:48.477Z,12.25
2022-09-23T20:49:20.950Z,8.00
2022-09-23T20:51:49.416Z,9.00
2022-09-23T20:54:21.046Z,8.93
2022-09-23T20:56:48.504Z,9.02
2022-09-23T20:59:18.012Z,10.32
2022-09-23T21:01:45.596Z,12.75
2022-09-23T21:04:13.315Z,10.73
2022-09-23T21:06:40.748Z,12.43
2022-09-23T21:09:08.187Z,16.98
2022-09-23T21:11:35.742Z,19.42
2022-09-23T21:14:03.394Z,18.15
2022-09-23T21:16:31.102Z,20.00
2022-09-23T21:19:00.050Z,26.20
2022-09-23T21:21:27.570Z,27.42
2022-09-23T21:23:56.491Z,27.23
2022-09-23T21:26:31.424Z,24.90
2022-09-23T21:29:01.430Z,28.48
2022-09-23T21:31:38.389Z,28.98
2022-09-23T21:34:09.203Z,29.75
2022-09-23T21:36:39.399Z,29.10
2022-09-23T21:39:09.377Z,31.15
2022-09-23T21:41:37.910Z,31.20
2022-09-23T21:44:08.319Z,33.78
2022-09-23T21:46:36.988Z,34.03
2022-09-23T21:49:05.305Z,28.95
2022-09-23T21:51:40.851Z,33.67
2022-09-23T21:54:15.737Z,28.38
2022-09-23T21:56:44.613Z,30.73
2022-09-23T21:59:12.230Z,31.45
2022-09-23T22:01:44.560Z,35.05
2022-09-23T22:04:17.761Z,39.47
2022-09-23T22:06:46.628Z,36.65
2022-09-23T22:09:18.663Z,35.10
2022-09-23T22:12:05.240Z,35.83
2022-09-23T22:14:33.120Z,35.00
2022-09-23T22:17:03.871Z,35.25
2022-09-23T22:19:40.223Z,42.42
2022-09-23T22:22:15.948Z,35.47
2022-09-23T22:24:45.842Z,37.88
2022-09-23T22:27:17.029Z,39.67
2022-09-23T22:30:02.517Z,49.97
2022-09-23T22:32:41.815Z,39.92
2022-09-23T22:35:18.880Z,38.50
2022-09-23T22:37:48.063Z,43.22
2022-09-23T22:40:16.425Z,37.28
2022-09-23T22:42:44.231Z,43.60
2022-09-23T22:45:13.113Z,41.55
2022-09-23T22:47:43.606Z,35.63
2022-09-23T22:50:12.235Z,38.15
2022-09-23T22:52:40.523Z,39.15
2022-09-23T22:55:08.508Z,40.60
2022-09-23T22:57:36.776Z,43.03
2022-09-23T23:00:06.855Z,41.30
2022-09-23T23:02:34.412Z,47.42
2022-09-23T23:05:02.289Z,43.25
2022-09-23T23:07:29.759Z,39.85
2022-09-23T23:09:57.036Z,41.03
2022-09-23T23:12:24.299Z,43.83
2022-09-23T23:14:51.672Z,44.10
2022-09-23T23:17:18.979Z,44.63
2022-09-23T23:19:47.540Z,51.45
2022-09-23T23:22:14.927Z,46.80
2022-09-23T23:24:42.226Z,46.85
2022-09-23T23:27:09.475Z,42.90
2022-09-23T23:29:36.868Z,35.03
2022-09-23T23:32:05.170Z,33.42
2022-09-23T23:34:32.363Z,39.30
2022-09-23T23:36:59.713Z,35.85
2022-09-23T23:39:26.921Z,34.33
2022-09-23T23:41:56.890Z,29.33
2022-09-23T23:44:26.577Z,30.48
2022-09-23T23:46:55.177Z,29.80
2022-09-23T23:49:23.084Z,30.67
2022-09-23T23:51:50.523Z,33.08
2022-09-23T23:54:17.809Z,32.55
2022-09-23T23:56:45.270Z,40.10
2022-09-23T23:59:12.853Z,41.97
